sensor_id;sensor_type;location;lat;lon;timestamp;P1;durP1;ratioP1;P2;durP2;ratioP2
78484;SDS011;67773;50.806;8.776;2023-05-10T00:01:54;9.20;;;5.93;;
78484;SDS011;67773;50.806;8.776;2023-05-10T00:04:19;7.83;;;6.03;;
78484;SDS011;67773;50.806;8.776;2023-05-10T00:06:45;8.00;;;5.50;;
78484;SDS011;67773;50.806;8.776;2023-05-10T00:09:10;9.83;;;5.53;;
78484;SDS011;67773;50.806;8.776;2023-05-10T00:11:36;8.38;;;5.72;;
78484;SDS011;67773;50.806;8.776;2023-05-10T00:14:01;9.87;;;6.07;;
78484;SDS011;67773;50.806;8.776;2023-05-10T00:16:26;8.80;;;6.07;;
78484;SDS011;67773;50.806;8.776;2023-05-10T00:18:52;9.30;;;6.03;;
78484;SDS011;67773;50.806;8.776;2023-05-10T00:21:17;9.33;;;6.00;;
78484;SDS011;67773;50.806;8.776;2023-05-10T00:23:42;8.93;;;6.00;;
78484;SDS011;67773;50.806;8.776;2023-05-10T00:26:08;8.97;;;5.90;;
78484;SDS011;67773;50.806;8.776;2023-05-10T00:28:33;8.65;;;5.47;;
78484;SDS011;67773;50.806;8.776;2023-05-10T00:30:58;8.30;;;5.77;;
78484;SDS011;67773;50.806;8.776;2023-05-10T00:33:24;9.27;;;5.88;;
78484;SDS011;67773;50.806;8.776;2023-05-10T00:35:49;8.67;;;5.87;;
78484;SDS011;67773;50.806;8.776;2023-05-10T00:38:15;10.40;;;6.03;;
78484;SDS011;67773;50.806;8.776;2023-05-10T00:40:40;7.80;;;5.27;;
78484;SDS011;67773;50.806;8.776;2023-05-10T00:43:06;3.10;;;1.30;;
78484;SDS011;67773;50.806;8.776;2023-05-10T00:45:32;1.08;;;0.50;;
78484;SDS011;67773;50.806;8.776;2023-05-10T00:47:59;3.53;;;0.50;;
78484;SDS011;67773;50.806;8.776;2023-05-10T00:50:27;2.20;;;0.40;;
78484;SDS011;67773;50.806;8.776;2023-05-10T00:52:53;0.82;;;0.35;;
78484;SDS011;67773;50.806;8.776;2023-05-10T00:55:18;0.40;;;0.20;;
78484;SDS011;67773;50.806;8.776;2023-05-10T00:57:43;0.57;;;0.17;;
78484;SDS011;67773;50.806;8.776;2023-05-10T01:00:09;1.90;;;0.32;;
78484;SDS011;67773;50.806;8.776;2023-05-10T01:02:36;1.08;;;0.20;;
78484;SDS011;67773;50.806;8.776;2023-05-10T01:05:02;0.77;;;0.20;;
78484;SDS011;67773;50.806;8.776;2023-05-10T01:07:31;1.38;;;0.28;;
78484;SDS011;67773;50.806;8.776;2023-05-10T01:09:56;0.60;;;0.20;;
78484;SDS011;67773;50.806;8.776;2023-05-10T01:12:22;0.82;;;0.30;;
78484;SDS011;67773;50.806;8.776;2023-05-10T01:14:48;2.25;;;0.20;;
78484;SDS011;67773;50.806;8.776;2023-05-10T01:17:13;1.00;;;0.30;;
78484;SDS011;67773;50.806;8.776;2023-05-10T01:19:40;0.65;;;0.22;;
78484;SDS011;67773;50.806;8.776;2023-05-10T01:25:18;1.23;;;0.30;;
78484;SDS011;67773;50.806;8.776;2023-05-10T01:35:26;1.25;;;0.30;;
78484;SDS011;67773;50.806;8.776;2023-05-10T01:37:53;1.65;;;0.30;;
78484;SDS011;67773;50.806;8.776;2023-05-10T01:40:35;2.22;;;0.35;;
78484;SDS011;67773;50.806;8.776;2023-05-10T01:43:06;0.60;;;0.20;;
78484;SDS011;67773;50.806;8.776;2023-05-10T01:45:39;0.60;;;0.20;;
78484;SDS011;67773;50.806;8.776;2023-05-10T01:48:09;0.98;;;0.25;;
78484;SDS011;67773;50.806;8.776;2023-05-10T01:50:37;1.35;;;0.30;;
78484;SDS011;67773;50.806;8.776;2023-05-10T01:53:06;0.80;;;0.20;;
78484;SDS011;67773;50.806;8.776;2023-05-10T01:55:35;1.63;;;0.43;;
78484;SDS011;67773;50.806;8.776;2023-05-10T01:58:09;1.67;;;0.40;;
78484;SDS011;67773;50.806;8.776;2023-05-10T02:00:40;0.52;;;0.20;;
78484;SDS011;67773;50.806;8.776;2023-05-10T02:03:09;3.42;;;0.30;;
78484;SDS011;67773;50.806;8.776;2023-05-10T02:05:36;1.48;;;0.50;;
78484;SDS011;67773;50.806;8.776;2023-05-10T02:08:02;1.25;;;0.20;;
78484;SDS011;67773;50.806;8.776;2023-05-10T02:10:31;1.08;;;0.32;;
78484;SDS011;67773;50.806;8.776;2023-05-10T02:12:58;0.50;;;0.20;;
78484;SDS011;67773;50.806;8.776;2023-05-10T02:15:24;1.15;;;0.32;;
78484;SDS011;67773;50.806;8.776;2023-05-10T02:17:51;0.73;;;0.30;;
78484;SDS011;67773;50.806;8.776;2023-05-10T02:20:19;2.88;;;0.40;;
78484;SDS011;67773;50.806;8.776;2023-05-10T02:22:47;0.93;;;0.32;;
78484;SDS011;67773;50.806;8.776;2023-05-10T02:25:15;3.40;;;0.60;;
78484;SDS011;67773;50.806;8.776;2023-05-10T02:27:44;0.85;;;0.30;;
78484;SDS011;67773;50.806;8.776;2023-05-10T02:30:10;1.42;;;0.40;;
78484;SDS011;67773;50.806;8.776;2023-05-10T02:32:36;1.58;;;0.30;;
78484;SDS011;67773;50.806;8.776;2023-05-10T02:35:02;2.63;;;0.55;;
78484;SDS011;67773;50.806;8.776;2023-05-10T02:37:28;2.25;;;0.50;;
78484;SDS011;67773;50.806;8.776;2023-05-10T02:39:55;0.68;;;0.30;;
78484;SDS011;67773;50.806;8.776;2023-05-10T02:42:25;4.72;;;0.55;;
78484;SDS011;67773;50.806;8.776;2023-05-10T02:44:53;2.45;;;0.40;;
78484;SDS011;67773;50.806;8.776;2023-05-10T02:47:21;2.47;;;0.50;;
78484;SDS011;67773;50.806;8.776;2023-05-10T02:49:47;1.65;;;0.60;;
78484;SDS011;67773;50.806;8.776;2023-05-10T02:52:13;1.88;;;0.73;;
78484;SDS011;67773;50.806;8.776;2023-05-10T02:54:44;1.77;;;0.80;;
78484;SDS011;67773;50.806;8.776;2023-05-10T02:57:15;1.50;;;0.75;;
78484;SDS011;67773;50.806;8.776;2023-05-10T02:59:44;1.52;;;0.70;;
78484;SDS011;67773;50.806;8.776;2023-05-10T03:02:10;2.00;;;0.73;;
78484;SDS011;67773;50.806;8.776;2023-05-10T03:04:37;1.13;;;0.50;;
78484;SDS011;67773;50.806;8.776;2023-05-10T03:07:03;1.85;;;0.60;;
78484;SDS011;67773;50.806;8.776;2023-05-10T03:09:28;2.15;;;0.80;;
78484;SDS011;67773;50.806;8.776;2023-05-10T03:17:45;2.15;;;0.75;;
78484;SDS011;67773;50.806;8.776;2023-05-10T03:20:22;1.25;;;0.63;;
78484;SDS011;67773;50.806;8.776;2023-05-10T03:22:52;3.47;;;2.00;;
78484;SDS011;67773;50.806;8.776;2023-05-10T03:25:20;6.57;;;1.98;;
78484;SDS011;67773;50.806;8.776;2023-05-10T03:27:47;2.78;;;0.77;;
78484;SDS011;67773;50.806;8.776;2023-05-10T03:30:13;1.17;;;0.60;;
78484;SDS011;67773;50.806;8.776;2023-05-10T03:32:39;1.80;;;0.60;;
78484;SDS011;67773;50.806;8.776;2023-05-10T03:35:08;0.93;;;0.43;;
78484;SDS011;67773;50.806;8.776;2023-05-10T03:37:38;0.82;;;0.43;;
78484;SDS011;67773;50.806;8.776;2023-05-10T03:40:03;0.88;;;0.50;;
78484;SDS011;67773;50.806;8.776;2023-05-10T03:42:29;2.35;;;0.80;;
78484;SDS011;67773;50.806;8.776;2023-05-10T03:44:55;1.75;;;0.60;;
78484;SDS011;67773;50.806;8.776;2023-05-10T03:47:20;1.73;;;0.80;;
78484;SDS011;67773;50.806;8.776;2023-05-10T03:49:46;1.27;;;0.70;;
78484;SDS011;67773;50.806;8.776;2023-05-10T03:52:11;1.90;;;0.63;;
78484;SDS011;67773;50.806;8.776;2023-05-10T03:54:36;2.20;;;1.00;;
78484;SDS011;67773;50.806;8.776;2023-05-10T03:57:02;1.35;;;0.70;;
78484;SDS011;67773;50.806;8.776;2023-05-10T03:59:28;1.70;;;0.75;;
78484;SDS011;67773;50.806;8.776;2023-05-10T04:01:53;2.08;;;0.80;;
78484;SDS011;67773;50.806;8.776;2023-05-10T04:04:18;2.80;;;1.23;;
78484;SDS011;67773;50.806;8.776;2023-05-10T04:06:45;2.70;;;1.00;;
78484;SDS011;67773;50.806;8.776;2023-05-10T04:09:11;2.45;;;0.95;;
78484;SDS011;67773;50.806;8.776;2023-05-10T04:11:36;1.92;;;0.90;;
78484;SDS011;67773;50.806;8.776;2023-05-10T04:14:02;1.53;;;1.03;;
78484;SDS011;67773;50.806;8.776;2023-05-10T04:16:27;2.88;;;1.00;;
78484;SDS011;67773;50.806;8.776;2023-05-10T04:18:52;9.73;;;2.10;;
78484;SDS011;67773;50.806;8.776;2023-05-10T04:21:18;2.70;;;0.90;;
78484;SDS011;67773;50.806;8.776;2023-05-10T04:23:43;1.80;;;0.77;;
78484;SDS011;67773;50.806;8.776;2023-05-10T04:26:08;1.50;;;0.80;;
78484;SDS011;67773;50.806;8.776;2023-05-10T04:28:34;1.70;;;0.93;;
78484;SDS011;67773;50.806;8.776;2023-05-10T04:31:08;2.35;;;1.10;;
78484;SDS011;67773;50.806;8.776;2023-05-10T04:33:35;4.35;;;1.80;;
78484;SDS011;67773;50.806;8.776;2023-05-10T04:36:01;3.15;;;1.50;;
78484;SDS011;67773;50.806;8.776;2023-05-10T04:38:27;3.55;;;1.83;;
78484;SDS011;67773;50.806;8.776;2023-05-10T04:40:53;2.33;;;1.38;;
78484;SDS011;67773;50.806;8.776;2023-05-10T04:43:18;2.33;;;1.40;;
78484;SDS011;67773;50.806;8.776;2023-05-10T04:45:44;2.55;;;1.30;;
78484;SDS011;67773;50.806;8.776;2023-05-10T04:48:09;4.17;;;1.40;;
78484;SDS011;67773;50.806;8.776;2023-05-10T04:50:35;2.40;;;1.20;;
78484;SDS011;67773;50.806;8.776;2023-05-10T04:53:00;3.15;;;1.08;;
78484;SDS011;67773;50.806;8.776;2023-05-10T04:55:26;3.47;;;1.50;;
78484;SDS011;67773;50.806;8.776;2023-05-10T04:57:52;4.40;;;1.40;;
78484;SDS011;67773;50.806;8.776;2023-05-10T05:00:17;3.53;;;1.52;;
78484;SDS011;67773;50.806;8.776;2023-05-10T05:02:43;3.20;;;1.58;;
78484;SDS011;67773;50.806;8.776;2023-05-10T05:05:10;2.28;;;1.38;;
78484;SDS011;67773;50.806;8.776;2023-05-10T05:07:35;5.97;;;2.05;;
78484;SDS011;67773;50.806;8.776;2023-05-10T05:10:01;5.67;;;2.23;;
78484;SDS011;67773;50.806;8.776;2023-05-10T05:12:26;2.87;;;1.37;;
78484;SDS011;67773;50.806;8.776;2023-05-10T05:14:51;3.53;;;1.73;;
78484;SDS011;67773;50.806;8.776;2023-05-10T05:17:17;4.70;;;1.70;;
78484;SDS011;67773;50.806;8.776;2023-05-10T05:19:42;3.63;;;1.63;;
78484;SDS011;67773;50.806;8.776;2023-05-10T05:22:07;2.83;;;1.77;;
78484;SDS011;67773;50.806;8.776;2023-05-10T05:24:36;2.97;;;1.63;;
78484;SDS011;67773;50.806;8.776;2023-05-10T05:27:04;4.38;;;1.70;;
78484;SDS011;67773;50.806;8.776;2023-05-10T05:29:30;3.35;;;1.80;;
78484;SDS011;67773;50.806;8.776;2023-05-10T05:31:56;4.75;;;1.60;;
78484;SDS011;67773;50.806;8.776;2023-05-10T05:34:21;2.57;;;1.40;;
78484;SDS011;67773;50.806;8.776;2023-05-10T05:36:47;3.00;;;1.52;;
78484;SDS011;67773;50.806;8.776;2023-05-10T05:39:13;3.22;;;1.90;;
78484;SDS011;67773;50.806;8.776;2023-05-10T05:41:39;2.92;;;1.55;;
78484;SDS011;67773;50.806;8.776;2023-05-10T05:44:04;3.23;;;1.43;;
78484;SDS011;67773;50.806;8.776;2023-05-10T05:46:30;3.15;;;1.60;;
78484;SDS011;67773;50.806;8.776;2023-05-10T05:48:55;4.18;;;1.60;;
78484;SDS011;67773;50.806;8.776;2023-05-10T05:51:21;2.92;;;1.80;;
78484;SDS011;67773;50.806;8.776;2023-05-10T05:53:46;3.77;;;1.70;;
78484;SDS011;67773;50.806;8.776;2023-05-10T05:56:11;2.20;;;1.40;;
78484;SDS011;67773;50.806;8.776;2023-05-10T05:58:36;3.97;;;1.53;;
78484;SDS011;67773;50.806;8.776;2023-05-10T06:01:02;3.90;;;1.80;;
78484;SDS011;67773;50.806;8.776;2023-05-10T06:03:27;2.30;;;1.50;;
78484;SDS011;67773;50.806;8.776;2023-05-10T06:05:52;3.43;;;1.70;;
78484;SDS011;67773;50.806;8.776;2023-05-10T06:08:18;3.83;;;1.70;;
78484;SDS011;67773;50.806;8.776;2023-05-10T06:10:43;3.30;;;1.48;;
78484;SDS011;67773;50.806;8.776;2023-05-10T06:13:12;3.95;;;1.67;;
78484;SDS011;67773;50.806;8.776;2023-05-10T06:15:37;4.10;;;1.70;;
78484;SDS011;67773;50.806;8.776;2023-05-10T06:18:03;3.03;;;1.80;;
78484;SDS011;67773;50.806;8.776;2023-05-10T06:20:28;3.33;;;1.73;;
78484;SDS011;67773;50.806;8.776;2023-05-10T06:22:56;2.78;;;1.67;;
78484;SDS011;67773;50.806;8.776;2023-05-10T06:25:21;4.45;;;2.03;;
78484;SDS011;67773;50.806;8.776;2023-05-10T06:27:46;2.23;;;1.50;;
78484;SDS011;67773;50.806;8.776;2023-05-10T06:30:12;2.50;;;1.57;;
78484;SDS011;67773;50.806;8.776;2023-05-10T06:32:39;2.45;;;1.50;;
78484;SDS011;67773;50.806;8.776;2023-05-10T06:35:05;2.70;;;1.98;;
78484;SDS011;67773;50.806;8.776;2023-05-10T06:37:31;3.30;;;2.20;;
78484;SDS011;67773;50.806;8.776;2023-05-10T06:39:56;2.90;;;1.90;;
78484;SDS011;67773;50.806;8.776;2023-05-10T06:42:21;3.07;;;1.70;;
78484;SDS011;67773;50.806;8.776;2023-05-10T06:44:47;2.88;;;2.00;;
78484;SDS011;67773;50.806;8.776;2023-05-10T06:47:14;3.00;;;1.73;;
78484;SDS011;67773;50.806;8.776;2023-05-10T06:49:39;4.47;;;2.20;;
78484;SDS011;67773;50.806;8.776;2023-05-10T06:52:05;4.70;;;2.28;;
78484;SDS011;67773;50.806;8.776;2023-05-10T06:54:30;4.47;;;2.63;;
78484;SDS011;67773;50.806;8.776;2023-05-10T06:56:55;4.13;;;2.20;;
78484;SDS011;67773;50.806;8.776;2023-05-10T06:59:21;4.28;;;2.25;;
78484;SDS011;67773;50.806;8.776;2023-05-10T07:01:47;6.18;;;2.35;;
78484;SDS011;67773;50.806;8.776;2023-05-10T07:04:12;5.05;;;2.30;;
78484;SDS011;67773;50.806;8.776;2023-05-10T07:06:38;6.40;;;2.40;;
78484;SDS011;67773;50.806;8.776;2023-05-10T07:09:03;5.37;;;2.50;;
78484;SDS011;67773;50.806;8.776;2023-05-10T07:11:29;4.90;;;2.50;;
78484;SDS011;67773;50.806;8.776;2023-05-10T07:13:54;4.67;;;2.50;;
78484;SDS011;67773;50.806;8.776;2023-05-10T07:16:19;5.30;;;2.47;;
78484;SDS011;67773;50.806;8.776;2023-05-10T07:18:46;4.70;;;2.65;;
78484;SDS011;67773;50.806;8.776;2023-05-10T07:21:11;3.90;;;2.30;;
78484;SDS011;67773;50.806;8.776;2023-05-10T07:23:36;4.17;;;2.37;;
78484;SDS011;67773;50.806;8.776;2023-05-10T07:26:02;4.10;;;2.30;;
78484;SDS011;67773;50.806;8.776;2023-05-10T07:28:27;2.97;;;2.17;;
78484;SDS011;67773;50.806;8.776;2023-05-10T07:30:52;5.07;;;2.25;;
78484;SDS011;67773;50.806;8.776;2023-05-10T07:33:18;3.90;;;2.00;;
78484;SDS011;67773;50.806;8.776;2023-05-10T07:35:43;2.08;;;1.48;;
78484;SDS011;67773;50.806;8.776;2023-05-10T07:38:09;3.83;;;1.55;;
78484;SDS011;67773;50.806;8.776;2023-05-10T07:40:36;5.03;;;1.95;;
78484;SDS011;67773;50.806;8.776;2023-05-10T07:43:01;3.15;;;1.48;;
78484;SDS011;67773;50.806;8.776;2023-05-10T07:45:27;2.67;;;1.55;;
78484;SDS011;67773;50.806;8.776;2023-05-10T07:47:52;2.47;;;1.30;;
78484;SDS011;67773;50.806;8.776;2023-05-10T07:50:18;3.05;;;1.67;;
78484;SDS011;67773;50.806;8.776;2023-05-10T07:52:43;18.40;;;8.70;;
78484;SDS011;67773;50.806;8.776;2023-05-10T07:55:09;3.67;;;2.22;;
78484;SDS011;67773;50.806;8.776;2023-05-10T07:57:35;2.83;;;1.45;;
78484;SDS011;67773;50.806;8.776;2023-05-10T08:00:00;7.38;;;3.00;;
78484;SDS011;67773;50.806;8.776;2023-05-10T08:02:25;5.03;;;1.92;;
78484;SDS011;67773;50.806;8.776;2023-05-10T08:04:51;3.53;;;1.50;;
78484;SDS011;67773;50.806;8.776;2023-05-10T08:07:16;2.15;;;1.45;;
78484;SDS011;67773;50.806;8.776;2023-05-10T08:09:42;2.03;;;1.20;;
78484;SDS011;67773;50.806;8.776;2023-05-10T08:12:07;3.00;;;1.30;;
78484;SDS011;67773;50.806;8.776;2023-05-10T08:14:32;2.07;;;1.33;;
78484;SDS011;67773;50.806;8.776;2023-05-10T08:16:58;2.87;;;1.50;;
78484;SDS011;67773;50.806;8.776;2023-05-10T08:19:23;4.60;;;1.33;;
78484;SDS011;67773;50.806;8.776;2023-05-10T08:34:03;3.42;;;1.48;;
78484;SDS011;67773;50.806;8.776;2023-05-10T08:36:29;2.83;;;1.37;;
78484;SDS011;67773;50.806;8.776;2023-05-10T08:38:54;2.10;;;1.23;;
78484;SDS011;67773;50.806;8.776;2023-05-10T08:41:20;2.45;;;1.40;;
78484;SDS011;67773;50.806;8.776;2023-05-10T08:43:46;3.05;;;1.38;;
78484;SDS011;67773;50.806;8.776;2023-05-10T08:46:15;2.05;;;1.40;;
78484;SDS011;67773;50.806;8.776;2023-05-10T08:48:43;3.25;;;1.50;;
78484;SDS011;67773;50.806;8.776;2023-05-10T08:51:09;1.88;;;1.45;;
78484;SDS011;67773;50.806;8.776;2023-05-10T08:53:37;2.40;;;1.40;;
78484;SDS011;67773;50.806;8.776;2023-05-10T08:56:03;2.63;;;1.45;;
78484;SDS011;67773;50.806;8.776;2023-05-10T08:58:29;4.82;;;1.60;;
78484;SDS011;67773;50.806;8.776;2023-05-10T09:00:55;3.65;;;1.58;;
78484;SDS011;67773;50.806;8.776;2023-05-10T09:03:21;3.20;;;1.52;;
78484;SDS011;67773;50.806;8.776;2023-05-10T09:05:47;2.47;;;1.20;;
78484;SDS011;67773;50.806;8.776;2023-05-10T09:08:14;3.38;;;1.30;;
78484;SDS011;67773;50.806;8.776;2023-05-10T09:10:41;3.05;;;1.50;;
78484;SDS011;67773;50.806;8.776;2023-05-10T09:13:08;2.95;;;1.63;;
78484;SDS011;67773;50.806;8.776;2023-05-10T09:15:36;2.70;;;1.42;;
78484;SDS011;67773;50.806;8.776;2023-05-10T09:18:02;3.72;;;1.52;;
78484;SDS011;67773;50.806;8.776;2023-05-10T09:20:27;2.97;;;1.60;;
78484;SDS011;67773;50.806;8.776;2023-05-10T09:22:53;2.78;;;1.30;;
78484;SDS011;67773;50.806;8.776;2023-05-10T09:25:18;2.03;;;1.50;;
78484;SDS011;67773;50.806;8.776;2023-05-10T09:27:45;2.42;;;1.75;;
78484;SDS011;67773;50.806;8.776;2023-05-10T09:32:54;3.13;;;1.88;;
78484;SDS011;67773;50.806;8.776;2023-05-10T09:35:22;3.50;;;2.00;;
78484;SDS011;67773;50.806;8.776;2023-05-10T09:37:50;4.43;;;2.05;;
78484;SDS011;67773;50.806;8.776;2023-05-10T09:40:22;3.75;;;2.25;;
78484;SDS011;67773;50.806;8.776;2023-05-10T09:45:25;3.88;;;2.22;;
78484;SDS011;67773;50.806;8.776;2023-05-10T09:47:52;3.03;;;2.00;;
78484;SDS011;67773;50.806;8.776;2023-05-10T09:50:18;3.88;;;2.58;;
78484;SDS011;67773;50.806;8.776;2023-05-10T09:55:21;4.20;;;2.20;;
78484;SDS011;67773;50.806;8.776;2023-05-10T09:58:00;3.55;;;2.38;;
78484;SDS011;67773;50.806;8.776;2023-05-10T10:00:26;4.47;;;2.10;;
78484;SDS011;67773;50.806;8.776;2023-05-10T10:02:57;3.58;;;2.35;;
78484;SDS011;67773;50.806;8.776;2023-05-10T10:05:30;5.95;;;3.35;;
78484;SDS011;67773;50.806;8.776;2023-05-10T10:07:59;6.10;;;3.00;;
78484;SDS011;67773;50.806;8.776;2023-05-10T10:10:26;7.25;;;2.78;;
78484;SDS011;67773;50.806;8.776;2023-05-10T10:12:52;6.40;;;3.25;;
78484;SDS011;67773;50.806;8.776;2023-05-10T10:15:18;6.72;;;3.28;;
78484;SDS011;67773;50.806;8.776;2023-05-10T10:17:45;6.28;;;3.17;;
78484;SDS011;67773;50.806;8.776;2023-05-10T10:20:10;5.53;;;3.03;;
78484;SDS011;67773;50.806;8.776;2023-05-10T10:22:36;4.75;;;2.45;;
78484;SDS011;67773;50.806;8.776;2023-05-10T10:25:02;6.82;;;2.30;;
78484;SDS011;67773;50.806;8.776;2023-05-10T10:35:30;2.88;;;1.85;;
78484;SDS011;67773;50.806;8.776;2023-05-10T10:37:56;3.45;;;1.95;;
78484;SDS011;67773;50.806;8.776;2023-05-10T10:40:26;6.68;;;2.50;;
78484;SDS011;67773;50.806;8.776;2023-05-10T10:42:56;5.13;;;2.55;;
78484;SDS011;67773;50.806;8.776;2023-05-10T10:45:22;4.78;;;2.60;;
78484;SDS011;67773;50.806;8.776;2023-05-10T10:47:49;3.35;;;1.70;;
78484;SDS011;67773;50.806;8.776;2023-05-10T10:50:44;5.22;;;2.25;;
78484;SDS011;67773;50.806;8.776;2023-05-10T10:53:11;3.95;;;2.28;;
78484;SDS011;67773;50.806;8.776;2023-05-10T10:55:44;3.50;;;2.08;;
78484;SDS011;67773;50.806;8.776;2023-05-10T10:58:12;3.92;;;2.20;;
78484;SDS011;67773;50.806;8.776;2023-05-10T11:01:08;3.92;;;2.22;;
78484;SDS011;67773;50.806;8.776;2023-05-10T11:03:35;4.75;;;2.28;;
78484;SDS011;67773;50.806;8.776;2023-05-10T11:06:00;3.53;;;2.40;;
78484;SDS011;67773;50.806;8.776;2023-05-10T11:08:33;4.45;;;1.98;;
78484;SDS011;67773;50.806;8.776;2023-05-10T11:11:06;3.17;;;1.92;;
78484;SDS011;67773;50.806;8.776;2023-05-10T11:13:45;6.13;;;2.90;;
78484;SDS011;67773;50.806;8.776;2023-05-10T11:18:41;6.20;;;3.47;;
78484;SDS011;67773;50.806;8.776;2023-05-10T11:21:49;7.53;;;3.55;;
78484;SDS011;67773;50.806;8.776;2023-05-10T11:24:17;7.80;;;3.92;;
78484;SDS011;67773;50.806;8.776;2023-05-10T11:26:49;8.05;;;4.05;;
78484;SDS011;67773;50.806;8.776;2023-05-10T11:29:15;7.28;;;4.35;;
78484;SDS011;67773;50.806;8.776;2023-05-10T11:31:44;5.50;;;3.17;;
78484;SDS011;67773;50.806;8.776;2023-05-10T11:34:11;5.25;;;2.58;;
78484;SDS011;67773;50.806;8.776;2023-05-10T11:36:37;5.68;;;2.65;;
78484;SDS011;67773;50.806;8.776;2023-05-10T11:39:03;4.23;;;2.43;;
78484;SDS011;67773;50.806;8.776;2023-05-10T11:41:30;4.35;;;2.50;;
78484;SDS011;67773;50.806;8.776;2023-05-10T11:43:56;4.80;;;2.88;;
78484;SDS011;67773;50.806;8.776;2023-05-10T11:46:24;4.28;;;2.63;;
78484;SDS011;67773;50.806;8.776;2023-05-10T11:48:52;4.65;;;2.95;;
78484;SDS011;67773;50.806;8.776;2023-05-10T11:51:22;5.10;;;3.10;;
78484;SDS011;67773;50.806;8.776;2023-05-10T11:53:50;5.13;;;3.17;;
78484;SDS011;67773;50.806;8.776;2023-05-10T11:56:17;6.32;;;3.35;;
78484;SDS011;67773;50.806;8.776;2023-05-10T11:58:42;6.60;;;3.80;;
78484;SDS011;67773;50.806;8.776;2023-05-10T12:01:08;4.38;;;2.80;;
78484;SDS011;67773;50.806;8.776;2023-05-10T12:03:35;5.25;;;3.13;;
78484;SDS011;67773;50.806;8.776;2023-05-10T12:06:01;5.90;;;3.58;;
78484;SDS011;67773;50.806;8.776;2023-05-10T12:08:27;7.30;;;4.18;;
78484;SDS011;67773;50.806;8.776;2023-05-10T12:11:03;5.15;;;3.65;;
78484;SDS011;67773;50.806;8.776;2023-05-10T12:13:30;8.07;;;3.67;;
78484;SDS011;67773;50.806;8.776;2023-05-10T12:15:58;4.67;;;3.40;;
78484;SDS011;67773;50.806;8.776;2023-05-10T12:18:24;5.18;;;3.20;;
78484;SDS011;67773;50.806;8.776;2023-05-10T12:20:51;6.32;;;3.08;;
78484;SDS011;67773;50.806;8.776;2023-05-10T12:23:18;5.10;;;3.20;;
78484;SDS011;67773;50.806;8.776;2023-05-10T12:25:45;5.93;;;3.30;;
78484;SDS011;67773;50.806;8.776;2023-05-10T12:28:10;5.25;;;3.17;;
78484;SDS011;67773;50.806;8.776;2023-05-10T12:30:36;5.50;;;2.93;;
78484;SDS011;67773;50.806;8.776;2023-05-10T12:33:06;4.07;;;2.40;;
78484;SDS011;67773;50.806;8.776;2023-05-10T12:35:33;3.10;;;2.13;;
78484;SDS011;67773;50.806;8.776;2023-05-10T12:38:24;3.55;;;2.20;;
78484;SDS011;67773;50.806;8.776;2023-05-10T12:40:50;3.00;;;1.85;;
78484;SDS011;67773;50.806;8.776;2023-05-10T12:43:16;2.17;;;1.43;;
78484;SDS011;67773;50.806;8.776;2023-05-10T12:45:41;2.67;;;1.70;;
78484;SDS011;67773;50.806;8.776;2023-05-10T12:48:06;2.67;;;1.60;;
78484;SDS011;67773;50.806;8.776;2023-05-10T12:50:32;4.67;;;1.77;;
78484;SDS011;67773;50.806;8.776;2023-05-10T12:52:57;2.67;;;1.90;;
78484;SDS011;67773;50.806;8.776;2023-05-10T12:55:22;3.93;;;2.33;;
78484;SDS011;67773;50.806;8.776;2023-05-10T12:57:47;3.07;;;1.70;;
78484;SDS011;67773;50.806;8.776;2023-05-10T13:00:13;3.17;;;1.47;;
78484;SDS011;67773;50.806;8.776;2023-05-10T13:02:39;2.33;;;1.48;;
78484;SDS011;67773;50.806;8.776;2023-05-10T13:05:04;2.97;;;1.47;;
78484;SDS011;67773;50.806;8.776;2023-05-10T13:07:30;2.92;;;1.30;;
78484;SDS011;67773;50.806;8.776;2023-05-10T13:09:55;1.10;;;0.70;;
78484;SDS011;67773;50.806;8.776;2023-05-10T13:12:21;1.93;;;0.80;;
78484;SDS011;67773;50.806;8.776;2023-05-10T13:14:46;0.97;;;0.50;;
78484;SDS011;67773;50.806;8.776;2023-05-10T13:17:11;2.73;;;0.80;;
78484;SDS011;67773;50.806;8.776;2023-05-10T13:19:37;1.20;;;0.80;;
78484;SDS011;67773;50.806;8.776;2023-05-10T13:22:02;6.57;;;0.73;;
78484;SDS011;67773;50.806;8.776;2023-05-10T13:24:28;2.28;;;0.80;;
78484;SDS011;67773;50.806;8.776;2023-05-10T13:26:53;1.13;;;0.60;;
78484;SDS011;67773;50.806;8.776;2023-05-10T13:29:18;0.90;;;0.60;;
78484;SDS011;67773;50.806;8.776;2023-05-10T13:31:44;1.38;;;0.60;;
78484;SDS011;67773;50.806;8.776;2023-05-10T13:34:09;0.90;;;0.38;;
78484;SDS011;67773;50.806;8.776;2023-05-10T13:36:35;1.00;;;0.60;;
78484;SDS011;67773;50.806;8.776;2023-05-10T13:39:00;0.80;;;0.40;;
78484;SDS011;67773;50.806;8.776;2023-05-10T13:41:27;3.22;;;0.70;;
78484;SDS011;67773;50.806;8.776;2023-05-10T13:43:52;1.47;;;0.60;;
78484;SDS011;67773;50.806;8.776;2023-05-10T13:46:18;1.20;;;0.67;;
78484;SDS011;67773;50.806;8.776;2023-05-10T13:48:44;0.93;;;0.60;;
78484;SDS011;67773;50.806;8.776;2023-05-10T13:51:09;1.07;;;0.80;;
78484;SDS011;67773;50.806;8.776;2023-05-10T13:53:34;1.47;;;0.50;;
78484;SDS011;67773;50.806;8.776;2023-05-10T13:56:00;1.40;;;0.60;;
78484;SDS011;67773;50.806;8.776;2023-05-10T13:58:25;1.60;;;0.60;;
78484;SDS011;67773;50.806;8.776;2023-05-10T14:00:50;1.17;;;0.80;;
78484;SDS011;67773;50.806;8.776;2023-05-10T14:03:16;0.63;;;0.43;;
78484;SDS011;67773;50.806;8.776;2023-05-10T14:05:41;1.67;;;0.60;;
78484;SDS011;67773;50.806;8.776;2023-05-10T14:08:07;2.17;;;0.50;;
78484;SDS011;67773;50.806;8.776;2023-05-10T14:10:34;2.33;;;0.80;;
78484;SDS011;67773;50.806;8.776;2023-05-10T14:12:59;2.83;;;0.90;;
78484;SDS011;67773;50.806;8.776;2023-05-10T14:15:24;1.80;;;0.50;;
78484;SDS011;67773;50.806;8.776;2023-05-10T14:17:50;1.10;;;0.43;;
78484;SDS011;67773;50.806;8.776;2023-05-10T14:20:15;1.57;;;0.80;;
78484;SDS011;67773;50.806;8.776;2023-05-10T14:22:40;2.57;;;1.20;;
78484;SDS011;67773;50.806;8.776;2023-05-10T14:25:06;1.83;;;1.07;;
78484;SDS011;67773;50.806;8.776;2023-05-10T14:27:31;1.15;;;0.60;;
78484;SDS011;67773;50.806;8.776;2023-05-10T14:29:57;2.08;;;0.43;;
78484;SDS011;67773;50.806;8.776;2023-05-10T14:32:22;1.20;;;0.57;;
78484;SDS011;67773;50.806;8.776;2023-05-10T14:34:47;1.70;;;0.80;;
78484;SDS011;67773;50.806;8.776;2023-05-10T14:37:13;1.10;;;0.57;;
78484;SDS011;67773;50.806;8.776;2023-05-10T14:39:40;1.45;;;0.65;;
78484;SDS011;67773;50.806;8.776;2023-05-10T14:42:05;1.07;;;0.53;;
78484;SDS011;67773;50.806;8.776;2023-05-10T14:44:30;1.90;;;0.60;;
78484;SDS011;67773;50.806;8.776;2023-05-10T14:46:56;2.00;;;0.63;;
78484;SDS011;67773;50.806;8.776;2023-05-10T14:49:22;2.20;;;0.80;;
78484;SDS011;67773;50.806;8.776;2023-05-10T14:51:49;1.90;;;0.50;;
78484;SDS011;67773;50.806;8.776;2023-05-10T14:54:15;1.10;;;0.57;;
78484;SDS011;67773;50.806;8.776;2023-05-10T14:56:40;3.33;;;0.90;;
78484;SDS011;67773;50.806;8.776;2023-05-10T14:59:06;0.73;;;0.50;;
78484;SDS011;67773;50.806;8.776;2023-05-10T15:01:32;0.90;;;0.52;;
78484;SDS011;67773;50.806;8.776;2023-05-10T15:03:57;1.70;;;0.60;;
78484;SDS011;67773;50.806;8.776;2023-05-10T15:06:23;1.13;;;0.57;;
78484;SDS011;67773;50.806;8.776;2023-05-10T15:08:55;0.80;;;0.50;;
78484;SDS011;67773;50.806;8.776;2023-05-10T15:11:20;1.00;;;0.50;;
78484;SDS011;67773;50.806;8.776;2023-05-10T15:13:46;1.02;;;0.63;;
78484;SDS011;67773;50.806;8.776;2023-05-10T15:16:11;2.07;;;0.97;;
78484;SDS011;67773;50.806;8.776;2023-05-10T15:18:37;0.73;;;0.50;;
78484;SDS011;67773;50.806;8.776;2023-05-10T15:21:02;1.23;;;0.67;;
78484;SDS011;67773;50.806;8.776;2023-05-10T15:23:28;0.60;;;0.40;;
78484;SDS011;67773;50.806;8.776;2023-05-10T15:25:54;2.55;;;0.60;;
78484;SDS011;67773;50.806;8.776;2023-05-10T15:28:20;2.15;;;0.90;;
78484;SDS011;67773;50.806;8.776;2023-05-10T15:30:46;1.00;;;0.60;;
78484;SDS011;67773;50.806;8.776;2023-05-10T15:33:11;0.97;;;0.60;;